createdAt,value
2023-05-20T00:00:11.774Z,23.04
2023-05-20T00:02:41.375Z,23.01
2023-05-20T00:05:11.763Z,22.99
2023-05-20T00:07:40.226Z,22.95
2023-05-20T00:10:10.841Z,22.90
2023-05-20T00:12:39.933Z,22.86
2023-05-20T00:15:12.102Z,22.84
2023-05-20T00:17:40.832Z,22.80
2023-05-20T00:20:12.601Z,22.80
2023-05-20T00:22:41.238Z,22.76
2023-05-20T00:25:10.687Z,22.77
2023-05-20T00:27:39.391Z,22.72
2023-05-20T00:30:10.439Z,22.71
2023-05-20T00:32:39.410Z,22.68
2023-05-20T00:35:12.025Z,22.68
2023-05-20T00:37:40.769Z,22.67
2023-05-20T00:40:13.093Z,22.68
2023-05-20T00:42:43.438Z,22.65
2023-05-20T00:45:12.791Z,22.65
2023-05-20T00:47:41.561Z,22.65
2023-05-20T00:50:13.052Z,22.65
2023-05-20T00:52:45.270Z,22.64
2023-05-20T00:55:14.104Z,22.64
2023-05-20T00:57:42.735Z,22.63
2023-05-20T01:00:13.745Z,22.62
2023-05-20T01:02:42.498Z,22.60
2023-05-20T01:05:12.589Z,22.58
2023-05-20T01:07:41.552Z,22.56
2023-05-20T01:10:12.635Z,22.55
2023-05-20T01:12:47.905Z,22.55
2023-05-20T01:15:17.244Z,22.53
2023-05-20T01:17:48.093Z,22.51
2023-05-20T01:20:19.160Z,22.49
2023-05-20T01:22:55.911Z,22.47
2023-05-20T01:25:26.607Z,22.45
2023-05-20T01:27:57.856Z,22.43
2023-05-20T01:30:32.770Z,22.42
2023-05-20T01:33:07.320Z,22.38
2023-05-20T01:35:36.778Z,22.36
2023-05-20T01:38:08.452Z,22.34
2023-05-20T01:40:37.823Z,22.32
2023-05-20T01:43:07.664Z,22.30
2023-05-20T01:45:38.336Z,22.28
2023-05-20T01:48:08.034Z,22.27
2023-05-20T01:50:36.472Z,22.25
2023-05-20T01:53:08.340Z,22.19
2023-05-20T01:55:37.398Z,22.17
2023-05-20T01:58:06.849Z,22.15
2023-05-20T02:00:35.515Z,22.12
2023-05-20T02:03:04.250Z,22.12
2023-05-20T02:05:32.856Z,22.10
2023-05-20T02:08:01.959Z,22.08
2023-05-20T02:10:31.894Z,22.09
2023-05-20T02:13:00.646Z,22.06
2023-05-20T02:15:29.155Z,22.05
2023-05-20T02:17:59.155Z,22.04
2023-05-20T02:20:27.819Z,22.03
2023-05-20T02:22:56.153Z,22.00
2023-05-20T02:25:25.027Z,21.94
2023-05-20T02:27:55.010Z,21.93
2023-05-20T02:30:23.945Z,21.90
2023-05-20T02:32:52.679Z,21.87
2023-05-20T02:35:21.086Z,21.85
2023-05-20T02:37:50.296Z,21.79
2023-05-20T02:40:19.208Z,21.74
2023-05-20T02:42:48.131Z,21.65
2023-05-20T02:45:18.054Z,21.61
2023-05-20T02:47:47.538Z,21.57
2023-05-20T02:50:16.435Z,21.56
2023-05-20T02:52:45.594Z,21.54
2023-05-20T02:55:14.513Z,21.53
2023-05-20T02:57:43.055Z,21.52
2023-05-20T03:00:14.628Z,21.53
2023-05-20T03:02:44.781Z,21.51
2023-05-20T03:05:13.547Z,21.51
2023-05-20T03:07:42.354Z,21.52
2023-05-20T03:10:12.029Z,21.54
2023-05-20T03:12:41.551Z,21.54
2023-05-20T03:15:12.652Z,21.53
2023-05-20T03:17:41.295Z,21.52
2023-05-20T03:20:12.937Z,21.54
2023-05-20T03:22:42.691Z,21.50
2023-05-20T03:25:11.718Z,21.51
2023-05-20T03:27:40.272Z,21.49
2023-05-20T03:30:10.645Z,21.48
2023-05-20T03:32:39.050Z,21.48
2023-05-20T03:35:10.761Z,21.46
2023-05-20T03:37:40.544Z,21.47
2023-05-20T03:40:11.333Z,21.46
2023-05-20T03:42:41.708Z,21.43
2023-05-20T03:45:11.604Z,21.42
2023-05-20T03:47:50.577Z,21.36
2023-05-20T03:50:21.998Z,21.33
2023-05-20T03:52:50.509Z,21.28
2023-05-20T03:55:22.073Z,21.25
2023-05-20T03:57:50.800Z,21.26
2023-05-20T04:00:19.665Z,21.25
2023-05-20T04:02:50.304Z,21.25
2023-05-20T04:05:22.133Z,21.25
2023-05-20T04:07:50.800Z,21.25
2023-05-20T04:10:21.847Z,21.24
2023-05-20T04:12:52.449Z,21.24
2023-05-20T04:15:23.861Z,21.24
2023-05-20T04:17:58.010Z,21.23
2023-05-20T04:20:28.515Z,21.23
2023-05-20T04:23:00.291Z,21.22
2023-05-20T04:25:29.000Z,21.21
2023-05-20T04:27:59.733Z,21.20
2023-05-20T04:30:28.327Z,21.20
2023-05-20T04:32:56.778Z,21.19
2023-05-20T04:35:26.977Z,21.20
2023-05-20T04:37:58.838Z,21.20
2023-05-20T04:40:27.430Z,21.19
2023-05-20T04:42:55.912Z,21.20
2023-05-20T04:45:25.197Z,21.18
2023-05-20T04:47:53.629Z,21.18
2023-05-20T04:50:22.423Z,21.16
2023-05-20T04:52:52.624Z,21.17
2023-05-20T04:55:21.596Z,21.19
2023-05-20T04:57:49.986Z,21.18
2023-05-20T05:00:19.393Z,21.19
2023-05-20T05:02:48.920Z,21.20
2023-05-20T05:05:18.214Z,21.19
2023-05-20T05:07:46.728Z,21.17
2023-05-20T05:10:16.824Z,21.16
2023-05-20T05:12:45.951Z,21.16
2023-05-20T05:15:14.346Z,21.15
2023-05-20T05:17:46.415Z,21.12
2023-05-20T05:20:15.579Z,21.11
2023-05-20T05:22:44.129Z,21.13
2023-05-20T05:25:13.765Z,21.14
2023-05-20T05:27:45.589Z,21.16
2023-05-20T05:30:14.545Z,21.17
2023-05-20T05:32:43.406Z,21.18
2023-05-20T05:35:12.486Z,21.18
2023-05-20T05:37:41.564Z,21.16
2023-05-20T05:40:11.937Z,21.13
2023-05-20T05:42:40.666Z,21.11
2023-05-20T05:45:13.247Z,21.10
2023-05-20T05:47:43.570Z,21.10
2023-05-20T05:50:12.282Z,21.10
2023-05-20T05:52:41.313Z,21.11
2023-05-20T05:55:13.248Z,21.08
2023-05-20T05:57:43.476Z,21.05
2023-05-20T06:00:18.338Z,21.06
2023-05-20T06:02:47.342Z,21.06
2023-05-20T06:05:29.771Z,21.09
2023-05-20T06:07:58.955Z,21.09
2023-05-20T06:10:28.259Z,21.10
2023-05-20T06:12:57.619Z,21.09
2023-05-20T06:15:29.693Z,21.08
2023-05-20T06:17:58.596Z,21.09
2023-05-20T06:20:27.927Z,21.12
2023-05-20T06:22:56.910Z,21.14
2023-05-20T06:25:30.058Z,21.15
2023-05-20T06:27:58.664Z,21.19
2023-05-20T06:30:28.913Z,21.22
2023-05-20T06:32:57.689Z,21.23
2023-05-20T06:35:26.112Z,21.24
2023-05-20T06:37:55.419Z,21.25
2023-05-20T06:40:23.854Z,21.25
2023-05-20T06:42:52.285Z,21.27
2023-05-20T06:45:41.423Z,21.30
2023-05-20T06:48:30.525Z,21.28
2023-05-20T06:50:59.594Z,21.30
2023-05-20T06:53:28.290Z,21.32
2023-05-20T06:55:56.910Z,21.35
2023-05-20T06:58:25.538Z,21.34
2023-05-20T07:00:58.502Z,21.35
2023-05-20T07:03:28.269Z,21.34
2023-05-20T07:05:56.865Z,21.35
2023-05-20T07:08:26.356Z,21.39
2023-05-20T07:10:57.194Z,21.40
2023-05-20T07:13:26.446Z,21.40
2023-05-20T07:15:55.294Z,21.41
2023-05-20T07:18:25.468Z,21.43
2023-05-20T07:20:56.863Z,21.45
2023-05-20T07:23:38.433Z,21.44
2023-05-20T07:26:07.375Z,21.43
2023-05-20T07:28:36.771Z,21.41
2023-05-20T07:31:08.698Z,21.42
2023-05-20T07:33:45.603Z,21.39
2023-05-20T07:36:14.967Z,21.41
2023-05-20T07:39:00.615Z,21.43
2023-05-20T07:41:33.289Z,21.43
2023-05-20T07:44:04.135Z,21.45
2023-05-20T07:46:35.745Z,21.42
2023-05-20T07:49:07.104Z,21.42
2023-05-20T07:51:36.648Z,21.42
2023-05-20T07:54:05.340Z,21.40
2023-05-20T07:56:34.322Z,21.40
2023-05-20T07:59:03.796Z,21.41
2023-05-20T08:01:38.042Z,21.40
2023-05-20T08:04:08.889Z,21.43
2023-05-20T08:06:41.340Z,21.44
2023-05-20T08:09:13.755Z,21.45
2023-05-20T08:11:48.091Z,21.45
2023-05-20T08:14:17.254Z,21.46
2023-05-20T08:16:52.987Z,21.48
2023-05-20T08:19:24.913Z,21.52
2023-05-20T08:21:53.484Z,21.56
2023-05-20T08:24:21.955Z,21.62
2023-05-20T08:26:50.939Z,21.62
2023-05-20T08:29:21.131Z,21.63
2023-05-20T08:31:49.569Z,21.65
2023-05-20T08:34:19.558Z,21.65
2023-05-20T08:36:49.628Z,21.66
2023-05-20T08:39:18.040Z,21.64
2023-05-20T08:41:48.954Z,21.66
2023-05-20T08:44:18.797Z,21.70
2023-05-20T08:46:48.039Z,21.74
2023-05-20T08:49:16.572Z,21.76
2023-05-20T08:51:46.289Z,21.79
2023-05-20T08:54:18.126Z,21.80
2023-05-20T08:56:46.936Z,21.83
2023-05-20T08:59:15.752Z,21.87
2023-05-20T09:01:46.117Z,21.90
2023-05-20T09:04:14.625Z,21.90
2023-05-20T09:06:47.320Z,21.91
2023-05-20T09:09:17.655Z,21.92
2023-05-20T09:11:46.286Z,21.92
2023-05-20T09:14:14.731Z,21.92
2023-05-20T09:16:43.941Z,21.92
2023-05-20T09:19:12.620Z,21.95
2023-05-20T09:21:43.817Z,21.96
2023-05-20T09:24:12.376Z,21.95
2023-05-20T09:26:43.015Z,21.97
2023-05-20T09:29:11.388Z,21.96
2023-05-20T09:31:39.978Z,21.95
2023-05-20T09:34:09.294Z,21.97
2023-05-20T09:36:38.162Z,22.00
2023-05-20T09:39:09.987Z,22.03
2023-05-20T09:41:51.942Z,22.04
2023-05-20T09:44:23.198Z,22.03
2023-05-20T09:46:54.474Z,22.03
2023-05-20T09:49:24.249Z,22.00
2023-05-20T09:51:54.057Z,21.98
2023-05-20T09:54:24.783Z,22.01
2023-05-20T09:56:56.081Z,22.02
2023-05-20T09:59:26.350Z,22.03
2023-05-20T10:01:54.892Z,22.04
2023-05-20T10:04:26.721Z,22.05
2023-05-20T10:07:15.560Z,22.00
2023-05-20T10:10:01.401Z,22.00
2023-05-20T10:12:37.587Z,22.01
2023-05-20T10:15:30.415Z,22.02
2023-05-20T10:18:12.090Z,22.03
2023-05-20T10:20:48.496Z,22.06
2023-05-20T10:23:24.349Z,22.10
2023-05-20T10:25:54.175Z,22.14
2023-05-20T10:28:36.827Z,22.19
2023-05-20T10:31:17.781Z,22.24
2023-05-20T10:33:48.059Z,22.27
2023-05-20T10:36:27.876Z,22.30
2023-05-20T10:38:58.836Z,22.33
2023-05-20T10:41:29.907Z,22.36
2023-05-20T10:44:04.577Z,22.39
2023-05-20T10:46:44.193Z,22.44
2023-05-20T10:49:25.213Z,22.50
2023-05-20T10:51:56.829Z,22.46
2023-05-20T10:54:25.255Z,22.46
2023-05-20T10:56:54.785Z,22.47
2023-05-20T10:59:25.054Z,22.49
2023-05-20T11:01:55.608Z,22.54
2023-05-20T11:04:24.853Z,22.60
2023-05-20T11:06:56.226Z,22.68
2023-05-20T11:09:24.977Z,22.70
2023-05-20T11:11:55.368Z,22.72
2023-05-20T11:14:25.311Z,22.74
2023-05-20T11:16:55.005Z,22.78
2023-05-20T11:19:23.529Z,22.85
2023-05-20T11:21:52.234Z,22.90
2023-05-20T11:24:28.409Z,22.99
2023-05-20T11:26:58.063Z,23.04
2023-05-20T11:29:32.185Z,23.10
2023-05-20T11:32:01.813Z,23.15
2023-05-20T11:34:36.425Z,23.21
2023-05-20T11:37:09.060Z,23.26
2023-05-20T11:39:38.983Z,23.31
2023-05-20T11:42:07.588Z,23.34
2023-05-20T11:44:38.405Z,23.41
2023-05-20T11:47:07.255Z,23.44
2023-05-20T11:49:41.851Z,23.52
2023-05-20T11:52:12.233Z,23.54
2023-05-20T11:54:40.698Z,23.52
2023-05-20T11:57:09.375Z,23.54
2023-05-20T11:59:40.976Z,23.58
2023-05-20T12:02:09.482Z,23.62
2023-05-20T12:04:37.961Z,23.65
2023-05-20T12:07:09.477Z,23.67
2023-05-20T12:09:38.261Z,23.70
2023-05-20T12:12:07.813Z,23.72
2023-05-20T12:14:36.237Z,23.75
2023-05-20T12:17:06.627Z,23.79
2023-05-20T12:19:36.665Z,23.79
2023-05-20T12:22:06.045Z,23.82
2023-05-20T12:24:34.463Z,23.83
2023-05-20T12:27:04.136Z,23.85
2023-05-20T12:29:32.586Z,23.85
2023-05-20T12:32:01.734Z,23.86
2023-05-20T12:34:33.137Z,23.88
2023-05-20T12:37:01.548Z,23.89
2023-05-20T12:39:30.029Z,23.88
2023-05-20T12:41:58.713Z,23.89
2023-05-20T12:44:27.946Z,23.91
2023-05-20T12:46:57.243Z,23.91
2023-05-20T12:49:26.057Z,23.90
2023-05-20T12:51:55.947Z,23.91
2023-05-20T12:54:28.132Z,23.93
2023-05-20T12:56:57.131Z,23.94
2023-05-20T12:59:26.307Z,23.95
2023-05-20T13:01:54.889Z,23.93
2023-05-20T13:04:23.230Z,23.92
2023-05-20T13:06:51.753Z,23.91
2023-05-20T13:09:21.914Z,23.90
2023-05-20T13:11:50.306Z,23.89
2023-05-20T13:14:18.810Z,23.91
2023-05-20T13:16:47.672Z,23.93
2023-05-20T13:19:16.440Z,23.95
2023-05-20T13:21:44.921Z,23.97
2023-05-20T13:24:13.540Z,23.96
2023-05-20T13:26:44.141Z,23.98
2023-05-20T13:29:13.103Z,24.00
2023-05-20T13:31:41.569Z,24.02
2023-05-20T13:34:10.507Z,24.06
2023-05-20T13:36:39.086Z,24.10
2023-05-20T13:39:07.890Z,24.13
2023-05-20T13:41:36.274Z,24.16
2023-05-20T13:44:06.622Z,24.17
2023-05-20T13:46:35.300Z,24.20
2023-05-20T13:49:03.768Z,24.21
2023-05-20T13:51:32.565Z,24.21
2023-05-20T13:54:01.012Z,24.23
2023-05-20T13:56:29.432Z,24.23
2023-05-20T13:58:58.080Z,24.25
2023-05-20T14:01:29.160Z,24.27
2023-05-20T14:03:58.407Z,24.26
2023-05-20T14:06:29.956Z,24.26
2023-05-20T14:08:59.246Z,24.25
2023-05-20T14:11:27.712Z,24.25
2023-05-20T14:13:56.413Z,24.25
2023-05-20T14:16:25.468Z,24.25
2023-05-20T14:18:55.716Z,24.26
2023-05-20T14:21:24.176Z,24.26
2023-05-20T14:23:52.577Z,24.26
2023-05-20T14:26:21.832Z,24.30
2023-05-20T14:28:50.732Z,24.34
2023-05-20T14:31:19.334Z,24.36
2023-05-20T14:33:47.826Z,24.36
2023-05-20T14:36:18.196Z,24.37
2023-05-20T14:38:48.841Z,24.37
2023-05-20T14:41:18.122Z,24.39
2023-05-20T14:43:46.565Z,24.41
2023-05-20T14:46:15.463Z,24.42
2023-05-20T14:48:44.345Z,24.42
2023-05-20T14:51:13.481Z,24.40
2023-05-20T14:53:43.386Z,24.40
2023-05-20T14:56:11.917Z,24.37
2023-05-20T14:58:40.788Z,24.32
2023-05-20T15:01:09.722Z,24.27
2023-05-20T15:03:38.585Z,24.21
2023-05-20T15:06:07.531Z,24.19
2023-05-20T15:08:35.974Z,24.17
2023-05-20T15:11:06.430Z,24.17
2023-05-20T15:13:34.832Z,24.19
2023-05-20T15:16:03.285Z,24.19
2023-05-20T15:18:31.778Z,24.15
2023-05-20T15:21:00.653Z,24.14
2023-05-20T15:23:29.250Z,24.12
2023-05-20T15:25:58.929Z,24.12
2023-05-20T15:28:28.832Z,24.11
2023-05-20T15:30:58.541Z,24.06
2023-05-20T15:33:27.801Z,24.00
2023-05-20T15:35:56.410Z,23.95
2023-05-20T15:38:24.812Z,23.93
2023-05-20T15:40:53.313Z,23.93
2023-05-20T15:43:21.686Z,23.93
2023-05-20T15:45:51.633Z,23.93
2023-05-20T15:48:20.893Z,23.92
2023-05-20T15:50:49.514Z,23.89
2023-05-20T15:53:17.880Z,23.90
2023-05-20T15:55:46.763Z,23.92
2023-05-20T15:58:15.401Z,23.93
2023-05-20T16:00:43.981Z,23.96
2023-05-20T16:03:14.008Z,23.99
2023-05-20T16:05:42.704Z,23.98
2023-05-20T16:08:11.159Z,23.98
2023-05-20T16:10:39.661Z,23.98
2023-05-20T16:13:08.495Z,23.98
2023-05-20T16:15:38.467Z,24.00
2023-05-20T16:18:07.331Z,23.99
2023-05-20T16:20:37.514Z,23.99
2023-05-20T16:23:06.299Z,23.99
2023-05-20T16:25:35.073Z,23.97
2023-05-20T16:28:03.538Z,23.94
2023-05-20T16:30:32.152Z,23.91
2023-05-20T16:33:00.755Z,23.90
2023-05-20T16:35:29.231Z,23.93
2023-05-20T16:37:59.702Z,23.95
2023-05-20T16:40:28.133Z,23.93
2023-05-20T16:42:56.649Z,23.96
2023-05-20T16:45:25.053Z,23.95
2023-05-20T16:47:53.805Z,23.96
2023-05-20T16:50:22.385Z,23.97
2023-05-20T16:52:51.227Z,23.96
2023-05-20T16:55:21.286Z,23.96
2023-05-20T16:57:50.568Z,23.96
2023-05-20T17:00:19.836Z,23.94
2023-05-20T17:02:48.306Z,23.93
2023-05-20T17:05:17.165Z,23.91
2023-05-20T17:07:45.946Z,23.91
2023-05-20T17:10:14.386Z,23.90
2023-05-20T17:12:44.813Z,23.87
2023-05-20T17:15:19.606Z,23.86
2023-05-20T17:17:48.100Z,23.84
2023-05-20T17:20:16.589Z,23.85
2023-05-20T17:22:45.140Z,23.87
2023-05-20T17:25:13.625Z,23.88
2023-05-20T17:27:43.457Z,23.88
2023-05-20T17:30:13.283Z,23.87
2023-05-20T17:32:41.825Z,23.86
2023-05-20T17:35:11.045Z,23.87
2023-05-20T17:37:39.814Z,23.85
2023-05-20T17:40:09.735Z,23.83
2023-05-20T17:42:38.291Z,23.82
2023-05-20T17:45:10.229Z,23.84
2023-05-20T17:47:39.040Z,23.82
2023-05-20T17:50:10.115Z,23.81
2023-05-20T17:52:38.595Z,23.81
2023-05-20T17:55:08.062Z,23.81
2023-05-20T17:57:36.954Z,23.76
2023-05-20T18:00:11.005Z,23.76
2023-05-20T18:02:47.605Z,23.73
2023-05-20T18:05:17.271Z,23.72
2023-05-20T18:07:46.012Z,23.71
2023-05-20T18:10:15.306Z,23.71
2023-05-20T18:12:45.352Z,23.70
2023-05-20T18:15:17.833Z,23.71
2023-05-20T18:17:47.070Z,23.71
2023-05-20T18:20:16.500Z,23.70
2023-05-20T18:22:46.448Z,23.69
2023-05-20T18:25:16.569Z,23.71
2023-05-20T18:27:45.276Z,23.72
2023-05-20T18:30:15.105Z,23.72
2023-05-20T18:32:43.489Z,23.71
2023-05-20T18:35:12.229Z,23.71
2023-05-20T18:37:41.182Z,23.71
2023-05-20T18:40:11.008Z,23.67
2023-05-20T18:42:39.427Z,23.65
2023-05-20T18:45:09.769Z,23.63
2023-05-20T18:47:40.019Z,23.63
2023-05-20T18:50:09.724Z,23.63
2023-05-20T18:52:38.866Z,23.62
2023-05-20T18:55:08.976Z,23.60
2023-05-20T18:57:37.536Z,23.59
2023-05-20T19:00:12.198Z,23.57
2023-05-20T19:02:43.178Z,23.58
2023-05-20T19:05:13.916Z,23.56
2023-05-20T19:07:42.710Z,23.53
2023-05-20T19:10:11.758Z,23.51
2023-05-20T19:12:40.287Z,23.48
2023-05-20T19:15:10.987Z,23.46
2023-05-20T19:17:41.170Z,23.44
2023-05-20T19:20:11.151Z,23.44
2023-05-20T19:22:39.647Z,23.45
2023-05-20T19:25:08.541Z,23.46
2023-05-20T19:27:37.163Z,23.46
2023-05-20T19:30:07.897Z,23.47
2023-05-20T19:32:38.715Z,23.44
2023-05-20T19:35:10.152Z,23.46
2023-05-20T19:37:39.292Z,23.45
2023-05-20T19:40:09.597Z,23.45
2023-05-20T19:42:38.011Z,23.44
2023-05-20T19:45:08.637Z,23.43
2023-05-20T19:47:38.155Z,23.41
2023-05-20T19:50:10.532Z,23.41
2023-05-20T19:52:39.089Z,23.37
2023-05-20T19:55:08.475Z,23.35
2023-05-20T19:57:36.994Z,23.32
2023-05-20T20:00:08.204Z,23.30
2023-05-20T20:02:41.758Z,23.25
2023-05-20T20:05:12.470Z,23.20
2023-05-20T20:07:41.420Z,23.18
2023-05-20T20:10:11.238Z,23.14
2023-05-20T20:12:39.675Z,23.13
2023-05-20T20:15:10.178Z,23.14
2023-05-20T20:17:45.782Z,23.11
2023-05-20T20:20:16.829Z,23.11
2023-05-20T20:22:45.688Z,23.10
2023-05-20T20:25:15.615Z,23.09
2023-05-20T20:27:45.419Z,23.10
2023-05-20T20:30:16.140Z,23.08
2023-05-20T20:32:44.591Z,23.05
2023-05-20T20:35:13.396Z,22.99
2023-05-20T20:37:44.702Z,22.98
2023-05-20T20:40:14.388Z,22.96
2023-05-20T20:42:45.274Z,22.96
2023-05-20T20:45:15.158Z,22.96
2023-05-20T20:47:44.888Z,22.98
2023-05-20T20:50:13.886Z,22.95
2023-05-20T20:52:44.815Z,22.95
2023-05-20T20:55:13.897Z,22.94
2023-05-20T20:57:42.604Z,22.94
2023-05-20T21:00:17.467Z,22.95
2023-05-20T21:02:46.638Z,22.92
2023-05-20T21:05:16.823Z,22.91
2023-05-20T21:07:49.989Z,22.91
2023-05-20T21:10:18.616Z,22.90
2023-05-20T21:12:47.232Z,22.90
2023-05-20T21:15:15.662Z,22.89
2023-05-20T21:17:44.187Z,22.87
2023-05-20T21:20:15.201Z,22.85
2023-05-20T21:22:43.947Z,22.83
2023-05-20T21:25:14.225Z,22.81
2023-05-20T21:27:42.872Z,22.80
2023-05-20T21:30:13.439Z,22.80
2023-05-20T21:32:42.392Z,22.80
2023-05-20T21:35:11.316Z,22.79
2023-05-20T21:37:39.777Z,22.78
2023-05-20T21:40:09.836Z,22.78
2023-05-20T21:42:40.036Z,22.80
2023-05-20T21:45:10.306Z,22.80
2023-05-20T21:47:38.812Z,22.82
2023-05-20T21:50:09.095Z,22.81
2023-05-20T21:52:39.697Z,22.80
2023-05-20T21:55:10.000Z,22.80
2023-05-20T21:57:39.805Z,22.80
2023-05-20T22:00:15.171Z,22.81
2023-05-20T22:02:43.839Z,22.80
2023-05-20T22:05:12.934Z,22.79
2023-05-20T22:07:43.322Z,22.79
2023-05-20T22:10:13.730Z,22.79
2023-05-20T22:12:44.504Z,22.80
2023-05-20T22:15:13.515Z,22.79
2023-05-20T22:17:42.581Z,22.81
2023-05-20T22:20:13.351Z,22.81
2023-05-20T22:22:42.606Z,22.81
2023-05-20T22:25:12.598Z,22.81
2023-05-20T22:27:42.897Z,22.80
2023-05-20T22:30:14.389Z,22.76
2023-05-20T22:32:43.261Z,22.74
2023-05-20T22:35:13.191Z,22.72
2023-05-20T22:37:41.792Z,22.72
2023-05-20T22:40:11.951Z,22.70
2023-05-20T22:42:40.696Z,22.70
2023-05-20T22:45:12.517Z,22.69
2023-05-20T22:47:41.130Z,22.67
2023-05-20T22:50:10.389Z,22.69
2023-05-20T22:52:38.777Z,22.67
2023-05-20T22:55:08.463Z,22.67
2023-05-20T22:57:37.257Z,22.66
2023-05-20T23:00:07.932Z,22.66
2023-05-20T23:02:41.525Z,22.66
2023-05-20T23:05:11.893Z,22.65
2023-05-20T23:07:40.332Z,22.65
2023-05-20T23:10:10.120Z,22.65
2023-05-20T23:12:38.591Z,22.64
2023-05-20T23:15:09.067Z,22.65
2023-05-20T23:17:39.669Z,22.64
2023-05-20T23:20:11.183Z,22.64
2023-05-20T23:22:39.660Z,22.62
2023-05-20T23:25:09.706Z,22.59
2023-05-20T23:27:38.799Z,22.59
2023-05-20T23:30:10.865Z,22.56
2023-05-20T23:32:41.706Z,22.55
2023-05-20T23:35:11.778Z,22.54
2023-05-20T23:37:42.107Z,22.53
2023-05-20T23:40:11.728Z,22.52
2023-05-20T23:42:40.487Z,22.52
2023-05-20T23:45:10.450Z,22.52
2023-05-20T23:47:40.623Z,22.52
2023-05-20T23:50:10.074Z,22.49
2023-05-20T23:52:40.310Z,22.47
2023-05-20T23:55:12.888Z,22.45
2023-05-20T23:57:41.527Z,22.43
